Time;durP1;ratioP1;P1;durP2;ratioP2;P2;SDS_P1;SDS_P2;PMS_P1;PMS_P2;Temp;Humidity;BMP_temperature;BMP_pressure;BME280_temperature;BME280_humidity;BME280_pressure;Samples;Min_cycle;Max_cycle;Signal;HPM_P1;HPM_P2
2022/11/27 00:07:34;;;;;;;30.1;19.8;;;;;;;4.8;87.3;100070;;;;
2022/11/27 00:17:34;;;;;;;30.1;19.8;;;;;;;4.9;87.1;100070;;;;
2022/11/27 00:27:34;;;;;;;27.6;20;;;;;;;4.9;86.9;100070;;;;
2022/11/27 00:37:34;;;;;;;27.6;20;;;;;;;4.9;86.7;100070;;;;
2022/11/27 00:48:34;;;;;;;27.6;20;;;;;;;4.9;86.7;100070;;;;
2022/11/27 00:58:34;;;;;;;26;16.7;;;;;;;4.8;86.8;100060;;;;
2022/11/27 01:08:34;;;;;;;26;16.7;;;;;;;4.9;86.7;100060;;;;
2022/11/27 01:19:35;;;;;;;26;16.7;;;;;;;4.8;86.2;100060;;;;
2022/11/27 01:30:34;;;;;;;25.1;15.2;;;;;;;4.9;85.7;100060;;;;
2022/11/27 01:40:34;;;;;;;25.1;15.2;;;;;;;4.9;85;100050;;;;
2022/11/27 01:51:34;;;;;;;25.1;15.2;;;;;;;4.6;84.8;100050;;;;
2022/11/27 02:01:34;;;;;;;22;14.9;;;;;;;4.5;85.4;100050;;;;
2022/11/27 02:11:35;;;;;;;22;14.9;;;;;;;4.5;85.4;100060;;;;
2022/11/27 02:22:34;;;;;;;22;14.9;;;;;;;4.2;85.5;100060;;;;
2022/11/27 02:32:34;;;;;;;22.5;14.2;;;;;;;4.2;86.3;100060;;;;
2022/11/27 02:42:35;;;;;;;22.5;14.2;;;;;;;4.1;86.8;100060;;;;
2022/11/27 02:52:34;;;;;;;22.5;14.2;;;;;;;4.1;87;100080;;;;
2022/11/27 03:03:34;;;;;;;24.4;16.6;;;;;;;4.1;87.2;100080;;;;
2022/11/27 03:13:36;;;;;;;24.4;16.6;;;;;;;4;87.9;100080;;;;
2022/11/27 03:23:35;;;;;;;24.4;16.6;;;;;;;4;88.3;100080;;;;
2022/11/27 03:34:35;;;;;;;24.5;15.8;;;;;;;3.9;88.1;100080;;;;
2022/11/27 03:45:35;;;;;;;24.5;15.8;;;;;;;4;88.1;100080;;;;
2022/11/27 03:55:34;;;;;;;24.5;15.8;;;;;;;4.2;87.9;100080;;;;
2022/11/27 04:06:35;;;;;;;17.8;9.7;;;;;;;4.3;87.7;100090;;;;
2022/11/27 04:16:34;;;;;;;17.8;9.7;;;;;;;4.3;87.3;100080;;;;
2022/11/27 04:26:34;;;;;;;17.8;9.8;;;;;;;4.3;87;100090;;;;
2022/11/27 04:36:35;;;;;;;17.8;9.8;;;;;;;4.3;86.8;100100;;;;
2022/11/27 04:47:34;;;;;;;17.8;9.8;;;;;;;4.2;86.8;100090;;;;
2022/11/27 04:58:34;;;;;;;14.4;9.9;;;;;;;4.3;87;100080;;;;
2022/11/27 05:08:34;;;;;;;14.4;9.9;;;;;;;4.3;86.9;100080;;;;
2022/11/27 05:19:34;;;;;;;14.4;9.9;;;;;;;4.2;87;100080;;;;
2022/11/27 05:30:34;;;;;;;18.3;10.6;;;;;;;4.2;87.3;100090;;;;
2022/11/27 05:41:35;;;;;;;18.3;10.6;;;;;;;4.2;87.2;100100;;;;
2022/11/27 05:52:34;;;;;;;18.3;10.6;;;;;;;4.3;87.1;100100;;;;
2022/11/27 06:02:34;;;;;;;18.4;11.2;;;;;;;4.1;87.1;100100;;;;
2022/11/27 06:12:35;;;;;;;18.4;11.2;;;;;;;4.1;87.3;100090;;;;
2022/11/27 06:23:35;;;;;;;18.4;11.2;;;;;;;4.2;87.4;100090;;;;
2022/11/27 06:34:35;;;;;;;19.2;12.1;;;;;;;4.2;87.2;100090;;;;
2022/11/27 06:45:35;;;;;;;19.2;12.1;;;;;;;4;87.7;100080;;;;
2022/11/27 06:55:34;;;;;;;19.2;12.1;;;;;;;4.1;87.9;100080;;;;
2022/11/27 07:06:35;;;;;;;18.4;11.4;;;;;;;4.2;87.9;100080;;;;
2022/11/27 07:17:35;;;;;;;18.4;11.4;;;;;;;4.1;87.8;100080;;;;
2022/11/27 07:27:34;;;;;;;15.1;9.8;;;;;;;4.4;88.1;100070;;;;
2022/11/27 07:38:34;;;;;;;15.1;9.8;;;;;;;4.5;87.6;100080;;;;
2022/11/27 07:48:35;;;;;;;15.1;9.8;;;;;;;4.6;87.1;100070;;;;
2022/11/27 07:59:35;;;;;;;13.7;8.4;;;;;;;4.8;87;100080;;;;
2022/11/27 08:10:35;;;;;;;13.7;8.4;;;;;;;5;86.2;100090;;;;
2022/11/27 08:21:35;;;;;;;13.7;8.4;;;;;;;5.1;85.7;100090;;;;
2022/11/27 08:32:35;;;;;;;14.1;10.3;;;;;;;5.2;85.8;100070;;;;
2022/11/27 08:43:35;;;;;;;14.1;10.3;;;;;;;5.4;85;100080;;;;
2022/11/27 08:53:36;;;;;;;14.1;10.3;;;;;;;5.7;84;100080;;;;
2022/11/27 09:04:35;;;;;;;14.7;12.1;;;;;;;6;83.5;100080;;;;
2022/11/27 09:15:35;;;;;;;14.7;12.1;;;;;;;6;83.1;100080;;;;
2022/11/27 09:26:35;;;;;;;13.7;10.1;;;;;;;6.1;82.6;100080;;;;
2022/11/27 09:37:35;;;;;;;13.7;10.1;;;;;;;6.1;82.1;100090;;;;
2022/11/27 09:47:35;;;;;;;13.7;10.1;;;;;;;6.3;81.7;100070;;;;
2022/11/27 09:58:35;;;;;;;16.8;10.8;;;;;;;6.5;80.7;100070;;;;
2022/11/27 10:09:35;;;;;;;16.8;10.8;;;;;;;6.4;79.9;100060;;;;
2022/11/27 10:19:35;;;;;;;16.8;10.8;;;;;;;6.1;81.2;100050;;;;
2022/11/27 10:30:35;;;;;;;16.4;11.6;;;;;;;6.1;81.9;100050;;;;
2022/11/27 10:40:35;;;;;;;16.4;11.6;;;;;;;6;81.4;100040;;;;
2022/11/27 10:51:35;;;;;;;16.4;11.6;;;;;;;5.9;81.8;100030;;;;
2022/11/27 11:02:36;;;;;;;15.4;11.9;;;;;;;6.1;81.4;100020;;;;
2022/11/27 11:13:35;;;;;;;15.4;11.9;;;;;;;6.3;81.2;100010;;;;
2022/11/27 11:23:35;;;;;;;15.4;11.9;;;;;;;6.2;80.5;99990;;;;
2022/11/27 11:34:35;;;;;;;15.3;12.4;;;;;;;6.2;80.3;99990;;;;
2022/11/27 11:44:35;;;;;;;15.3;12.4;;;;;;;6.5;79.7;99980;;;;
2022/11/27 11:54:35;;;;;;;15.3;12.4;;;;;;;6.8;79.1;99990;;;;
2022/11/27 12:05:35;;;;;;;11.5;8.9;;;;;;;6.8;77.6;99990;;;;
2022/11/27 12:15:35;;;;;;;11.5;8.9;;;;;;;7;77.2;99970;;;;
2022/11/27 12:25:35;;;;;;;12.2;9.4;;;;;;;6.6;77.3;99960;;;;
2022/11/27 12:35:35;;;;;;;12.2;9.4;;;;;;;6.5;78;99960;;;;
2022/11/27 12:46:36;;;;;;;12.2;9.4;;;;;;;6.6;77.2;99960;;;;
2022/11/27 12:57:35;;;;;;;11.9;8.6;;;;;;;6.4;77.1;99960;;;;
2022/11/27 13:07:38;;;;;;;11.9;8.6;;;;;;;6.2;77.1;99940;;;;
2022/11/27 13:18:35;;;;;;;11.9;8.6;;;;;;;6.1;77.7;99940;;;;
2022/11/27 13:28:35;;;;;;;13.2;10.5;;;;;;;6;78.7;99940;;;;
2022/11/27 13:39:35;;;;;;;13.2;10.5;;;;;;;5.9;79.2;99930;;;;
2022/11/27 13:50:35;;;;;;;13.2;10.5;;;;;;;5.7;80.4;99940;;;;
2022/11/27 14:00:35;;;;;;;24.5;19.7;;;;;;;5.6;81.1;99940;;;;
2022/11/27 14:11:35;;;;;;;24.5;19.7;;;;;;;5.6;81.4;99930;;;;
2022/11/27 14:21:37;;;;;;;24.5;19.7;;;;;;;5.3;82.2;99940;;;;
2022/11/27 14:32:35;;;;;;;21.5;16.3;;;;;;;5.4;82.3;99940;;;;
2022/11/27 14:42:35;;;;;;;21.5;16.3;;;;;;;5.4;82.2;99930;;;;
2022/11/27 14:53:35;;;;;;;21.5;16.3;;;;;;;5.3;82.6;99930;;;;
2022/11/27 15:03:35;;;;;;;24.4;17.9;;;;;;;5.2;83;99920;;;;
2022/11/27 15:13:35;;;;;;;24.4;17.9;;;;;;;5.1;83.3;99920;;;;
2022/11/27 15:23:37;;;;;;;24.4;17.9;;;;;;;5;83.6;99910;;;;
2022/11/27 15:34:35;;;;;;;35.5;26.7;;;;;;;4.8;84.3;99910;;;;
2022/11/27 15:45:35;;;;;;;35.5;26.7;;;;;;;4.9;84.1;99910;;;;
2022/11/27 15:55:35;;;;;;;23.5;18.2;;;;;;;5;83.9;99910;;;;
2022/11/27 16:06:35;;;;;;;23.5;18.2;;;;;;;5;83.8;99900;;;;
2022/11/27 16:16:35;;;;;;;23.5;18.2;;;;;;;5;83.7;99900;;;;
2022/11/27 16:27:35;;;;;;;29.3;20.3;;;;;;;4.8;84;99900;;;;
2022/11/27 16:37:35;;;;;;;29.3;20.3;;;;;;;4.6;84.9;99890;;;;
2022/11/27 16:48:35;;;;;;;29.3;20.3;;;;;;;4.4;85.3;99890;;;;
2022/11/27 16:58:35;;;;;;;32.9;21.8;;;;;;;4.5;85.3;99880;;;;
2022/11/27 17:08:35;;;;;;;32.9;21.8;;;;;;;4.6;85;99880;;;;
2022/11/27 17:18:35;;;;;;;32.9;21.8;;;;;;;4.7;84.8;99880;;;;
2022/11/27 17:29:35;;;;;;;35;24.3;;;;;;;4.6;84.7;99870;;;;
2022/11/27 17:40:35;;;;;;;35;24.3;;;;;;;4.3;85.4;99860;;;;
2022/11/27 17:51:35;;;;;;;35;24.3;;;;;;;4.3;85.7;99850;;;;
2022/11/27 18:02:35;;;;;;;39.1;26.9;;;;;;;4.1;86.4;99840;;;;
2022/11/27 18:13:35;;;;;;;39.1;26.9;;;;;;;4.1;86.7;99820;;;;
2022/11/27 18:24:35;;;;;;;39.1;26.9;;;;;;;4.1;86.7;99820;;;;
2022/11/27 18:35:35;;;;;;;43.8;31.3;;;;;;;4;86.6;99800;;;;
2022/11/27 18:45:35;;;;;;;43.8;31.3;;;;;;;4.1;86.8;99800;;;;
2022/11/27 18:56:35;;;;;;;51.7;33.4;;;;;;;4.1;86.6;99780;;;;
2022/11/27 19:06:35;;;;;;;51.7;33.4;;;;;;;4.2;86.3;99790;;;;
2022/11/27 19:17:35;;;;;;;51.7;33.4;;;;;;;4.1;86.4;99810;;;;
2022/11/27 19:27:35;;;;;;;138.7;87.2;;;;;;;4.1;86.3;99800;;;;
2022/11/27 19:38:35;;;;;;;138.7;87.2;;;;;;;4.1;86.5;99800;;;;
2022/11/27 19:49:35;;;;;;;138.7;87.2;;;;;;;3.9;87;99780;;;;
2022/11/27 20:00:35;;;;;;;39.7;26.5;;;;;;;4;86.9;99770;;;;
2022/11/27 20:10:35;;;;;;;39.7;26.5;;;;;;;4;87;99760;;;;
2022/11/27 20:21:35;;;;;;;39.7;26.5;;;;;;;3.9;87.1;99740;;;;
2022/11/27 20:32:35;;;;;;;39.8;27.2;;;;;;;3.9;86.4;99740;;;;
2022/11/27 20:43:35;;;;;;;39.8;27.2;;;;;;;3.7;86.7;99720;;;;
2022/11/27 20:53:35;;;;;;;39.8;27.2;;;;;;;3.5;86.8;99720;;;;
2022/11/27 21:04:35;;;;;;;29.8;20.9;;;;;;;3.6;86.5;99730;;;;
2022/11/27 21:14:35;;;;;;;29.8;20.9;;;;;;;3.6;86.1;99720;;;;
2022/11/27 21:25:35;;;;;;;31.5;19.8;;;;;;;3.6;85.9;99710;;;;
2022/11/27 21:35:35;;;;;;;31.5;19.8;;;;;;;3.7;85.5;99710;;;;
2022/11/27 21:46:35;;;;;;;31.5;19.8;;;;;;;3.8;85.1;99710;;;;
2022/11/27 21:56:37;;;;;;;33;17.5;;;;;;;3.8;84.7;99700;;;;
2022/11/27 22:07:35;;;;;;;33;17.5;;;;;;;3.8;85.2;99700;;;;
2022/11/27 22:17:35;;;;;;;33;17.5;;;;;;;3.7;85.9;99700;;;;
2022/11/27 22:28:35;;;;;;;30;22.7;;;;;;;3.9;85.9;99690;;;;
2022/11/27 22:38:35;;;;;;;30;22.7;;;;;;;3.9;85.8;99670;;;;
2022/11/27 22:48:35;;;;;;;30;22.7;;;;;;;3.7;86.3;99660;;;;
2022/11/27 22:58:35;;;;;;;35.3;23.7;;;;;;;3.8;86.3;99640;;;;
2022/11/27 23:08:35;;;;;;;35.3;23.7;;;;;;;3.6;86.4;99630;;;;
2022/11/27 23:19:35;;;;;;;35.3;23.7;;;;;;;3.5;86.4;99610;;;;
2022/11/27 23:29:35;;;;;;;34.4;21.4;;;;;;;3.3;86;99620;;;;
2022/11/27 23:40:35;;;;;;;34.4;21.4;;;;;;;3.3;86.4;99620;;;;
2022/11/27 23:51:35;;;;;;;34.4;21.4;;;;;;;3.2;87;99610;;;;
